Time;durP1;ratioP1;P1;durP2;ratioP2;P2;SDS_P1;SDS_P2;PMS_P1;PMS_P2;Temp;Humidity;BMP_temperature;BMP_pressure;BME280_temperature;BME280_humidity;BME280_pressure;Samples;Min_cycle;Max_cycle;Signal;HPM_P1;HPM_P2
2023/06/26 00:01:39;;;;;;;3.80;3.33;;;25.40;68.80;;;;;;5036331;28;20218;-67
2023/06/26 00:04:05;;;;;;;3.97;3.40;;;25.40;69.10;;;;;;5036976;28;20186;-66
2023/06/26 00:06:38;;;;;;;5.30;3.50;;;25.40;69.40;;;;;;5032526;28;20180;-66
2023/06/26 00:09:08;;;;;;;4.03;3.55;;;25.40;69.10;;;;;;5049824;28;20205;-66
2023/06/26 00:11:34;;;;;;;3.88;3.40;;;25.40;68.70;;;;;;5044639;28;20177;-67
2023/06/26 00:14:00;;;;;;;3.85;3.45;;;25.40;68.60;;;;;;5034635;28;20339;-66
2023/06/26 00:16:27;;;;;;;3.85;3.45;;;25.40;68.60;;;;;;5052184;28;20197;-66
2023/06/26 00:18:55;;;;;;;4.47;3.88;;;25.40;68.80;;;;;;5037161;28;20213;-65
2023/06/26 00:21:23;;;;;;;4.25;3.50;;;25.40;68.90;;;;;;5052735;28;20329;-68
2023/06/26 00:23:51;;;;;;;4.28;3.88;;;25.40;69.00;;;;;;5036812;28;20178;-67
2023/06/26 00:26:17;;;;;;;3.70;3.40;;;25.40;69.00;;;;;;5041467;28;20209;-68
2023/06/26 00:28:45;;;;;;;4.25;3.63;;;25.40;68.90;;;;;;5039613;28;20208;-66
2023/06/26 00:31:13;;;;;;;4.72;3.63;;;25.30;68.80;;;;;;5064592;28;20186;-66
2023/06/26 00:33:38;;;;;;;3.75;3.17;;;25.30;69.00;;;;;;5038423;28;20208;-66
2023/06/26 00:36:04;;;;;;;4.40;3.38;;;25.30;69.20;;;;;;5029322;28;20186;-68
2023/06/26 00:38:32;;;;;;;3.72;3.40;;;25.20;69.30;;;;;;5042073;28;20349;-67
2023/06/26 00:41:02;;;;;;;4.00;3.60;;;25.20;69.30;;;;;;5053454;28;20261;-66
2023/06/26 00:43:28;;;;;;;3.92;3.53;;;25.20;69.30;;;;;;5035924;28;20178;-67
2023/06/26 00:45:56;;;;;;;4.07;3.60;;;25.20;69.30;;;;;;5047334;28;20225;-67
2023/06/26 00:48:21;;;;;;;4.22;3.63;;;25.10;69.40;;;;;;5032498;28;20216;-67
2023/06/26 00:50:47;;;;;;;4.95;4.00;;;25.10;69.60;;;;;;5056787;28;20209;-66
2023/06/26 00:53:13;;;;;;;4.32;3.42;;;25.10;70.40;;;;;;5036151;28;20174;-66
2023/06/26 00:55:43;;;;;;;4.05;3.47;;;25.00;69.70;;;;;;5036412;28;20204;-67
2023/06/26 00:58:11;;;;;;;4.15;3.72;;;25.00;70.00;;;;;;5052762;28;20194;-66
2023/06/26 01:00:37;;;;;;;5.85;3.60;;;25.00;70.20;;;;;;5035916;28;20201;-66
2023/06/26 01:03:05;;;;;;;3.95;3.17;;;24.90;70.30;;;;;;5036525;28;20208;-66
2023/06/26 01:05:31;;;;;;;4.07;3.50;;;24.90;70.70;;;;;;5035678;28;20185;-68
2023/06/26 01:08:00;;;;;;;3.75;3.35;;;24.80;70.60;;;;;;5043258;28;20223;-66
2023/06/26 01:10:29;;;;;;;4.95;3.72;;;24.70;70.80;;;;;;5053586;28;20235;-67
2023/06/26 01:13:00;;;;;;;5.35;3.72;;;24.70;71.00;;;;;;5034749;28;20201;-67
2023/06/26 01:15:25;;;;;;;3.88;3.42;;;24.70;71.30;;;;;;5052936;28;20264;-66
2023/06/26 01:17:51;;;;;;;4.43;3.72;;;24.60;71.50;;;;;;5051501;28;20293;-68
2023/06/26 01:20:20;;;;;;;3.78;3.38;;;24.50;71.60;;;;;;5036367;28;20174;-67
2023/06/26 01:23:07;;;;;;;4.38;3.65;;;24.50;71.70;;;;;;5035878;28;20261;-66
2023/06/26 01:25:56;;;;;;;4.22;3.67;;;24.50;72.60;;;;;;5046439;28;20206;-66
2023/06/26 01:28:26;;;;;;;5.03;3.40;;;24.40;72.30;;;;;;5031751;28;20185;-67
2023/06/26 01:30:53;;;;;;;3.83;3.40;;;24.40;72.10;;;;;;5036284;28;20194;-66
2023/06/26 01:33:19;;;;;;;4.05;3.30;;;24.30;72.20;;;;;;5051896;28;20173;-66
2023/06/26 01:35:45;;;;;;;4.00;3.60;;;24.30;72.30;;;;;;5037114;28;20212;-68
2023/06/26 01:38:16;;;;;;;4.22;3.67;;;24.30;72.50;;;;;;5043965;28;20204;-67
2023/06/26 01:40:43;;;;;;;4.50;3.60;;;24.20;72.70;;;;;;5033644;28;20178;-65
2023/06/26 01:43:21;;;;;;;4.55;3.60;;;24.20;72.60;;;;;;5034697;28;20204;-67
2023/06/26 01:45:53;;;;;;;4.75;3.80;;;24.20;73.00;;;;;;5034935;28;20182;-67
2023/06/26 01:48:27;;;;;;;4.03;3.60;;;24.20;72.90;;;;;;5021846;28;20202;-67
2023/06/26 01:50:56;;;;;;;4.05;3.40;;;24.10;72.90;;;;;;5040476;28;20195;-67
2023/06/26 01:53:29;;;;;;;3.92;3.53;;;24.10;72.80;;;;;;5056638;28;20190;-67
2023/06/26 01:56:08;;;;;;;3.70;3.33;;;24.10;73.00;;;;;;5034188;28;20244;-67
2023/06/26 01:58:35;;;;;;;3.90;3.40;;;24.10;72.90;;;;;;5051339;28;20208;-66
2023/06/26 02:01:01;;;;;;;3.92;3.50;;;24.10;73.00;;;;;;5052194;28;20201;-66
2023/06/26 02:03:31;;;;;;;3.90;3.47;;;24.10;73.20;;;;;;5058578;28;20178;-66
2023/06/26 02:06:01;;;;;;;3.72;3.35;;;24.10;73.30;;;;;;5041651;28;20170;-65
2023/06/26 02:08:31;;;;;;;3.35;3.05;;;24.10;73.40;;;;;;5034034;28;20186;-66
2023/06/26 02:10:57;;;;;;;3.90;3.22;;;24.10;73.50;;;;;;5035514;28;20174;-66
2023/06/26 02:13:23;;;;;;;3.90;3.30;;;24.10;73.40;;;;;;5036819;28;20580;-66
2023/06/26 02:15:48;;;;;;;4.05;3.33;;;24.10;73.60;;;;;;5050645;28;20236;-66
2023/06/26 02:18:14;;;;;;;4.15;3.55;;;24.00;73.60;;;;;;5034478;28;20202;-66
2023/06/26 02:20:43;;;;;;;3.80;3.40;;;24.00;73.90;;;;;;5050944;28;20252;-65
2023/06/26 02:23:12;;;;;;;4.05;3.42;;;24.00;73.90;;;;;;5034737;28;20182;-66
2023/06/26 02:25:38;;;;;;;4.70;3.33;;;23.90;73.80;;;;;;5033589;28;20202;-66
2023/06/26 02:28:06;;;;;;;4.07;3.50;;;23.90;73.70;;;;;;5033892;28;20333;-66
2023/06/26 02:30:31;;;;;;;5.22;4.00;;;23.90;73.80;;;;;;5034085;28;20216;-66
2023/06/26 02:32:57;;;;;;;4.53;3.80;;;23.90;73.90;;;;;;5033843;28;20201;-66
2023/06/26 02:35:23;;;;;;;4.20;3.55;;;23.90;73.90;;;;;;5034104;28;20181;-66
2023/06/26 02:37:50;;;;;;;4.20;3.80;;;23.90;73.90;;;;;;5033611;28;20209;-65
2023/06/26 02:40:16;;;;;;;4.10;3.70;;;23.90;74.00;;;;;;5032018;28;20174;-66
2023/06/26 02:42:42;;;;;;;3.90;3.47;;;23.90;74.20;;;;;;5030372;28;20193;-66
2023/06/26 02:45:08;;;;;;;4.43;4.00;;;23.90;74.30;;;;;;5022236;28;20188;-66
2023/06/26 02:47:39;;;;;;;4.68;3.70;;;23.90;74.30;;;;;;5050419;28;20166;-66
2023/06/26 02:50:08;;;;;;;3.70;3.30;;;23.90;74.40;;;;;;5049559;28;20272;-66
2023/06/26 02:52:36;;;;;;;4.30;3.47;;;23.80;74.30;;;;;;5019004;28;20173;-66
2023/06/26 02:55:01;;;;;;;4.45;3.80;;;23.80;74.50;;;;;;5033667;28;20225;-65
2023/06/26 02:57:29;;;;;;;4.18;3.50;;;23.80;74.60;;;;;;5049668;28;20174;-65
2023/06/26 02:59:55;;;;;;;4.35;3.42;;;23.70;74.80;;;;;;5033791;28;20201;-65
2023/06/26 03:02:20;;;;;;;5.25;3.67;;;23.70;74.90;;;;;;5032928;28;20259;-66
2023/06/26 03:04:52;;;;;;;3.95;3.45;;;23.70;75.00;;;;;;5032580;28;20327;-65
2023/06/26 03:07:20;;;;;;;4.45;3.75;;;23.70;75.20;;;;;;5032230;28;20182;-66
2023/06/26 03:09:46;;;;;;;4.00;3.60;;;23.60;75.40;;;;;;5049175;28;20185;-66
2023/06/26 03:12:11;;;;;;;4.32;3.50;;;23.60;75.40;;;;;;5032737;28;20202;-66
2023/06/26 03:14:39;;;;;;;4.10;3.70;;;23.60;75.50;;;;;;5051617;28;20185;-66
2023/06/26 03:17:07;;;;;;;4.20;3.50;;;23.60;75.50;;;;;;5060307;28;20256;-66
2023/06/26 03:19:32;;;;;;;3.63;3.22;;;23.50;75.50;;;;;;5030767;28;20292;-65
2023/06/26 03:22:00;;;;;;;3.95;3.50;;;23.50;75.50;;;;;;5033743;28;20263;-66
2023/06/26 03:24:28;;;;;;;3.60;3.30;;;23.50;75.70;;;;;;5050906;28;20732;-65
2023/06/26 03:26:54;;;;;;;4.03;3.63;;;23.50;76.10;;;;;;5049811;28;20194;-66
2023/06/26 03:29:19;;;;;;;4.32;3.47;;;23.50;76.10;;;;;;5033463;28;20269;-66
2023/06/26 03:31:45;;;;;;;4.88;3.90;;;23.40;76.20;;;;;;5049272;28;20261;-66
2023/06/26 03:34:13;;;;;;;4.95;3.75;;;23.40;76.40;;;;;;5035782;28;20190;-65
2023/06/26 03:36:41;;;;;;;4.43;4.00;;;23.40;76.70;;;;;;5049745;28;20181;-66
2023/06/26 03:39:08;;;;;;;4.50;3.88;;;23.40;77.10;;;;;;5046478;28;20197;-65
2023/06/26 03:41:36;;;;;;;4.57;3.80;;;23.40;77.20;;;;;;5050316;28;20178;-66
2023/06/26 03:44:03;;;;;;;5.93;4.15;;;23.30;77.20;;;;;;5041213;28;20201;-66
2023/06/26 03:46:31;;;;;;;4.97;3.97;;;23.30;77.60;;;;;;5032098;28;20199;-66
2023/06/26 03:48:56;;;;;;;4.80;4.15;;;23.30;77.90;;;;;;5036293;28;21132;-66
2023/06/26 03:51:22;;;;;;;4.45;3.83;;;23.30;78.30;;;;;;5052820;28;20285;-66
2023/06/26 03:53:48;;;;;;;6.60;5.53;;;23.20;78.50;;;;;;5053018;28;20178;-66
2023/06/26 03:56:14;;;;;;;6.30;5.55;;;23.20;78.70;;;;;;5039247;28;20183;-66
2023/06/26 03:58:39;;;;;;;5.57;4.57;;;23.20;79.10;;;;;;5051373;28;20216;-66
2023/06/26 04:01:07;;;;;;;4.97;4.47;;;23.20;79.50;;;;;;5041419;28;20181;-66
2023/06/26 04:03:36;;;;;;;4.18;3.78;;;23.20;79.70;;;;;;5037309;28;20276;-66
2023/06/26 04:06:02;;;;;;;4.35;3.95;;;23.20;80.10;;;;;;5049271;28;20287;-65
2023/06/26 04:08:30;;;;;;;4.30;3.67;;;23.20;80.40;;;;;;5054317;28;20277;-65
2023/06/26 04:10:57;;;;;;;4.70;4.03;;;23.20;80.80;;;;;;5037105;28;20205;-66
2023/06/26 04:13:23;;;;;;;4.18;3.65;;;23.20;80.90;;;;;;5052221;28;20186;-66
2023/06/26 04:15:48;;;;;;;4.18;3.78;;;23.30;81.10;;;;;;5037121;28;20185;-65
2023/06/26 04:18:14;;;;;;;5.63;3.60;;;23.30;81.30;;;;;;5037610;28;20197;-65
2023/06/26 04:21:01;;;;;;;5.35;4.53;;;23.30;81.70;;;;;;5053769;28;20260;-65
2023/06/26 04:23:29;;;;;;;4.25;3.72;;;23.30;81.70;;;;;;5051518;28;20193;-66
2023/06/26 04:25:58;;;;;;;4.65;3.47;;;23.30;81.90;;;;;;5031011;28;20170;-65
2023/06/26 04:28:24;;;;;;;3.80;3.40;;;23.40;82.10;;;;;;5053796;28;20267;-65
2023/06/26 04:30:49;;;;;;;3.72;3.20;;;23.50;82.20;;;;;;5045370;28;20298;-65
2023/06/26 04:33:15;;;;;;;4.60;3.67;;;23.50;82.20;;;;;;5036384;28;20187;-65
2023/06/26 04:35:41;;;;;;;3.90;3.42;;;23.60;82.30;;;;;;5036446;28;21982;-65
2023/06/26 04:38:09;;;;;;;4.30;3.53;;;23.70;82.40;;;;;;5053580;28;20269;-65
2023/06/26 04:40:37;;;;;;;3.60;3.20;;;23.70;82.40;;;;;;5052123;28;20182;-65
2023/06/26 04:43:05;;;;;;;4.07;3.20;;;23.80;82.50;;;;;;5036786;28;20193;-66
2023/06/26 04:45:30;;;;;;;3.72;3.25;;;23.90;82.70;;;;;;5036777;28;20525;-65
2023/06/26 04:47:59;;;;;;;3.90;3.50;;;23.90;82.80;;;;;;5052339;28;20228;-65
2023/06/26 04:50:25;;;;;;;3.50;3.17;;;24.00;83.00;;;;;;5046048;28;20194;-67
2023/06/26 04:52:50;;;;;;;3.67;2.90;;;24.00;83.00;;;;;;5052822;28;20228;-65
2023/06/26 04:55:16;;;;;;;4.65;3.67;;;24.10;83.30;;;;;;5033437;28;20237;-66
2023/06/26 04:57:42;;;;;;;5.40;3.58;;;24.10;83.50;;;;;;5017061;28;20205;-66
2023/06/26 05:00:11;;;;;;;3.78;3.20;;;24.10;83.70;;;;;;5033976;28;20174;-66
2023/06/26 05:02:36;;;;;;;3.80;3.47;;;24.20;83.90;;;;;;5035104;28;20209;-66
2023/06/26 05:05:02;;;;;;;3.85;3.45;;;24.30;84.20;;;;;;5036951;28;20173;-66
2023/06/26 05:07:30;;;;;;;4.25;3.30;;;24.30;84.30;;;;;;5036078;28;20447;-66
2023/06/26 05:09:58;;;;;;;6.05;3.50;;;24.30;84.30;;;;;;5036757;28;20170;-66
2023/06/26 05:12:26;;;;;;;4.00;3.30;;;24.30;84.40;;;;;;5048038;28;20177;-66
2023/06/26 05:14:51;;;;;;;4.22;3.45;;;24.40;84.70;;;;;;5042745;28;20206;-67
2023/06/26 05:17:17;;;;;;;4.75;3.30;;;24.40;84.70;;;;;;5036103;28;20177;-67
2023/06/26 05:19:43;;;;;;;4.07;3.55;;;24.40;84.80;;;;;;5043537;28;20214;-67
2023/06/26 05:22:09;;;;;;;3.72;3.20;;;24.50;85.00;;;;;;5035578;28;20174;-67
2023/06/26 05:24:38;;;;;;;4.10;3.70;;;24.40;85.70;;;;;;5035635;28;20185;-67
2023/06/26 05:27:05;;;;;;;4.03;3.53;;;24.50;85.60;;;;;;5046783;28;20175;-66
2023/06/26 05:29:34;;;;;;;4.10;3.40;;;24.40;85.40;;;;;;5030437;28;20178;-66
2023/06/26 05:32:03;;;;;;;3.92;3.10;;;24.40;86.00;;;;;;5035990;28;20208;-68
2023/06/26 05:34:34;;;;;;;4.40;3.22;;;24.50;86.60;;;;;;5035764;28;20304;-68
2023/06/26 05:37:01;;;;;;;4.38;3.20;;;24.40;86.40;;;;;;5052700;28;20170;-68
2023/06/26 05:39:30;;;;;;;3.97;3.40;;;24.50;86.70;;;;;;5052048;28;20200;-68
2023/06/26 05:41:56;;;;;;;4.40;3.63;;;24.50;87.00;;;;;;5040276;28;20178;-68
2023/06/26 05:44:21;;;;;;;5.20;3.53;;;24.50;86.80;;;;;;5052006;28;20205;-68
2023/06/26 05:46:49;;;;;;;4.20;3.25;;;24.60;87.20;;;;;;5052255;28;20180;-68
2023/06/26 05:49:19;;;;;;;7.40;3.40;;;24.60;88.00;;;;;;5035048;28;20197;-68
2023/06/26 05:51:45;;;;;;;3.88;3.25;;;24.60;87.50;;;;;;5035261;28;20158;-68
2023/06/26 05:54:14;;;;;;;4.70;3.40;;;24.70;87.60;;;;;;5035367;28;20265;-68
2023/06/26 05:56:40;;;;;;;4.30;3.25;;;24.70;87.60;;;;;;5035264;28;20194;-68
2023/06/26 05:59:08;;;;;;;4.20;2.90;;;24.70;87.40;;;;;;5034816;28;20208;-68
2023/06/26 06:01:35;;;;;;;3.22;2.85;;;24.70;87.50;;;;;;5051735;28;20228;-68
2023/06/26 06:04:00;;;;;;;4.25;3.35;;;24.70;87.50;;;;;;5035227;28;20174;-67
2023/06/26 06:06:28;;;;;;;3.25;2.92;;;24.70;87.50;;;;;;5051650;28;20177;-68
2023/06/26 06:08:54;;;;;;;3.58;2.95;;;24.70;87.40;;;;;;5034961;28;20264;-68
2023/06/26 06:11:19;;;;;;;4.65;2.95;;;24.70;87.40;;;;;;5034807;28;20304;-69
2023/06/26 06:13:45;;;;;;;2.90;2.58;;;24.60;87.40;;;;;;5051566;28;20174;-67
2023/06/26 06:16:11;;;;;;;4.20;3.20;;;24.60;87.40;;;;;;5051357;28;20178;-68
2023/06/26 06:18:36;;;;;;;5.03;2.95;;;24.60;87.80;;;;;;5051442;28;20206;-68
2023/06/26 06:21:07;;;;;;;3.42;2.60;;;24.60;88.20;;;;;;5051026;28;20170;-68
2023/06/26 06:23:34;;;;;;;4.43;2.78;;;24.50;88.50;;;;;;5051485;28;20176;-68
2023/06/26 06:26:00;;;;;;;3.13;2.38;;;24.60;88.80;;;;;;5051447;28;20202;-67
2023/06/26 06:28:28;;;;;;;4.07;2.70;;;24.60;89.20;;;;;;5051112;28;20232;-67
2023/06/26 06:30:56;;;;;;;3.60;2.60;;;24.60;89.90;;;;;;5051018;28;20170;-68
2023/06/26 06:33:24;;;;;;;3.95;2.80;;;24.60;90.00;;;;;;5032309;28;20285;-68
2023/06/26 06:35:50;;;;;;;3.67;2.47;;;24.70;90.00;;;;;;5031344;28;20371;-68
2023/06/26 06:38:20;;;;;;;3.47;2.83;;;24.70;89.90;;;;;;5046553;28;20265;-68
2023/06/26 06:40:48;;;;;;;3.78;2.67;;;24.60;90.00;;;;;;5035151;28;20197;-67
2023/06/26 06:43:14;;;;;;;4.78;2.85;;;24.50;90.00;;;;;;5034487;28;20174;-68
2023/06/26 06:45:40;;;;;;;3.45;2.70;;;24.50;90.10;;;;;;5034533;28;20166;-68
2023/06/26 06:48:05;;;;;;;5.15;2.53;;;24.40;90.10;;;;;;5034048;28;20178;-67
2023/06/26 06:50:31;;;;;;;4.20;2.70;;;24.30;90.20;;;;;;5086652;22;20226;-67
2023/06/26 06:52:57;;;;;;;3.85;2.72;;;24.30;90.50;;;;;;5014658;28;20193;-67
2023/06/26 06:55:25;;;;;;;3.80;2.40;;;24.30;90.90;;;;;;5014295;28;20171;-67
2023/06/26 06:57:51;;;;;;;4.78;2.70;;;24.30;91.00;;;;;;5014384;28;20194;-68
2023/06/26 07:00:17;;;;;;;5.18;2.65;;;24.30;91.20;;;;;;5014608;28;20313;-67
2023/06/26 07:02:45;;;;;;;5.85;2.42;;;24.30;91.30;;;;;;5014854;28;20170;-68
2023/06/26 07:05:13;;;;;;;3.97;2.50;;;24.30;91.30;;;;;;5014797;28;20171;-68
2023/06/26 07:07:39;;;;;;;3.88;2.30;;;24.30;91.30;;;;;;5012929;28;20171;-68
2023/06/26 07:10:10;;;;;;;6.55;3.20;;;24.30;91.90;;;;;;4994960;28;20176;-69
2023/06/26 07:12:39;;;;;;;4.85;2.50;;;24.30;92.10;;;;;;4994728;28;20202;-69
2023/06/26 07:15:08;;;;;;;3.50;2.50;;;24.40;92.00;;;;;;4995139;28;20202;-68
2023/06/26 07:17:37;;;;;;;5.07;2.90;;;24.40;92.00;;;;;;4994925;28;20172;-69
2023/06/26 07:20:06;;;;;;;3.53;2.75;;;24.50;92.10;;;;;;4995019;28;20276;-69
2023/06/26 07:22:32;;;;;;;3.80;2.53;;;24.50;92.10;;;;;;4998544;28;20183;-69
2023/06/26 07:25:08;;;;;;;4.75;2.80;;;24.50;92.10;;;;;;5013984;28;20285;-69
2023/06/26 07:27:35;;;;;;;5.63;2.70;;;24.50;92.30;;;;;;5014542;28;20181;-68
2023/06/26 07:30:00;;;;;;;3.53;2.60;;;24.40;92.40;;;;;;5002627;28;20190;-69
2023/06/26 07:32:28;;;;;;;5.75;2.90;;;24.40;92.40;;;;;;4995018;28;20199;-68
2023/06/26 07:34:58;;;;;;;4.68;2.40;;;24.40;92.60;;;;;;4994743;28;20171;-68
2023/06/26 07:37:24;;;;;;;4.50;2.42;;;24.40;92.70;;;;;;5006355;28;20179;-69
2023/06/26 07:39:50;;;;;;;5.07;2.80;;;24.40;93.00;;;;;;5014297;28;20212;-70
2023/06/26 07:42:18;;;;;;;3.47;2.40;;;24.40;93.00;;;;;;5014466;28;20174;-70
2023/06/26 07:44:44;;;;;;;4.20;2.70;;;24.40;93.20;;;;;;5014453;28;20205;-68
2023/06/26 07:47:15;;;;;;;4.53;2.58;;;24.50;93.30;;;;;;5015378;28;20210;-68
2023/06/26 07:49:43;;;;;;;4.93;3.00;;;24.50;93.40;;;;;;5016181;28;20285;-69
2023/06/26 07:52:11;;;;;;;5.18;3.38;;;24.50;93.50;;;;;;5014647;28;20442;-69
2023/06/26 07:54:40;;;;;;;4.60;2.70;;;24.60;93.70;;;;;;4994732;28;20219;-70
2023/06/26 07:57:09;;;;;;;5.70;3.00;;;24.60;93.60;;;;;;5005980;28;20218;-68
2023/06/26 07:59:34;;;;;;;5.38;3.08;;;24.50;93.50;;;;;;5010486;28;20212;-69
2023/06/26 08:02:03;;;;;;;7.40;3.42;;;24.50;93.70;;;;;;4994745;28;20179;-69
2023/06/26 08:04:33;;;;;;;6.70;3.03;;;24.50;93.70;;;;;;4994451;28;20171;-69
2023/06/26 08:07:00;;;;;;;5.90;2.80;;;24.50;93.70;;;;;;4995391;28;20195;-68
2023/06/26 08:09:28;;;;;;;4.32;2.50;;;24.50;93.70;;;;;;4994330;28;20234;-68
2023/06/26 08:11:53;;;;;;;5.15;2.28;;;24.50;94.00;;;;;;4995233;28;20187;-69
2023/06/26 08:14:27;;;;;;;4.60;2.83;;;24.50;94.10;;;;;;4994487;28;20310;-70
2023/06/26 08:16:55;;;;;;;6.82;2.97;;;24.60;94.80;;;;;;4994379;28;20200;-69
2023/06/26 08:19:23;;;;;;;4.50;2.78;;;24.60;94.40;;;;;;4994510;28;20219;-68
2023/06/26 08:21:50;;;;;;;4.07;2.60;;;24.60;94.30;;;;;;4994670;28;20195;-68
2023/06/26 08:24:18;;;;;;;5.22;2.90;;;24.70;94.30;;;;;;4994600;28;20171;-68
2023/06/26 08:26:46;;;;;;;5.32;3.10;;;24.60;94.30;;;;;;4994562;28;20175;-68
2023/06/26 08:29:12;;;;;;;5.47;3.13;;;24.70;94.40;;;;;;4994477;28;20196;-69
2023/06/26 08:31:41;;;;;;;4.60;2.45;;;24.70;94.50;;;;;;5006958;28;20187;-68
2023/06/26 08:34:07;;;;;;;2.92;2.13;;;24.60;94.50;;;;;;5014007;28;20214;-68
2023/06/26 08:36:33;;;;;;;3.90;2.80;;;24.60;94.40;;;;;;5013818;28;20175;-69
2023/06/26 08:38:59;;;;;;;4.68;2.42;;;24.70;94.50;;;;;;5030326;28;20267;-68
2023/06/26 08:41:25;;;;;;;3.80;2.42;;;24.70;94.50;;;;;;4997551;28;20219;-68
2023/06/26 08:43:52;;;;;;;3.85;2.55;;;24.70;94.70;;;;;;4998036;28;20179;-68
2023/06/26 08:46:19;;;;;;;3.85;2.60;;;24.70;94.70;;;;;;4997669;28;20175;-69
2023/06/26 08:48:52;;;;;;;5.93;3.13;;;24.80;94.80;;;;;;4997653;28;20195;-68
2023/06/26 08:51:21;;;;;;;4.85;2.72;;;24.90;94.80;;;;;;5005285;28;20174;-69
2023/06/26 08:54:03;;;;;;;3.95;2.83;;;24.90;94.60;;;;;;5016976;28;20232;-69
2023/06/26 08:56:42;;;;;;;3.60;2.42;;;24.90;94.50;;;;;;5017469;28;20229;-68
2023/06/26 08:59:10;;;;;;;4.13;2.60;;;25.00;94.60;;;;;;5017171;28;20198;-68
2023/06/26 09:01:36;;;;;;;3.38;2.10;;;25.00;94.60;;;;;;5017242;28;20209;-68
2023/06/26 09:04:07;;;;;;;3.58;2.55;;;25.10;94.50;;;;;;5017313;28;20185;-68
2023/06/26 09:06:35;;;;;;;3.83;2.35;;;25.20;94.40;;;;;;4997439;28;20199;-68
2023/06/26 09:09:01;;;;;;;5.72;2.47;;;25.20;94.40;;;;;;4999875;28;20184;-68
2023/06/26 09:11:29;;;;;;;6.50;2.47;;;25.30;94.30;;;;;;4997214;28;20241;-68
2023/06/26 09:13:57;;;;;;;4.47;2.38;;;25.30;94.20;;;;;;5006490;28;20439;-68
2023/06/26 09:16:29;;;;;;;5.15;2.58;;;25.40;94.10;;;;;;4997169;28;20180;-70
2023/06/26 09:18:58;;;;;;;6.00;2.50;;;25.40;93.90;;;;;;4996898;28;20211;-68
2023/06/26 09:21:24;;;;;;;4.55;2.47;;;25.40;93.80;;;;;;4997162;28;20171;-68
2023/06/26 09:23:52;;;;;;;3.97;2.38;;;25.40;93.90;;;;;;4997281;28;20175;-68
2023/06/26 09:26:18;;;;;;;4.15;2.40;;;25.40;93.90;;;;;;4997100;28;20186;-69
2023/06/26 09:28:48;;;;;;;7.25;2.60;;;25.40;93.90;;;;;;5004594;28;20175;-68
2023/06/26 09:31:16;;;;;;;6.47;2.75;;;25.50;93.80;;;;;;5016320;28;20206;-68
2023/06/26 09:33:42;;;;;;;3.50;2.00;;;25.50;93.60;;;;;;5016689;28;20174;-68
2023/06/26 09:36:18;;;;;;;3.92;2.05;;;25.40;93.40;;;;;;5016493;28;20186;-68
2023/06/26 09:38:43;;;;;;;3.22;2.20;;;25.40;93.50;;;;;;5016309;28;20229;-69
2023/06/26 09:41:09;;;;;;;4.07;1.98;;;25.40;93.60;;;;;;4999980;28;20187;-68
2023/06/26 09:43:47;;;;;;;3.83;2.22;;;25.50;93.50;;;;;;4996678;28;20183;-68
2023/06/26 09:46:26;;;;;;;6.07;2.47;;;25.50;93.20;;;;;;4996926;28;20206;-69
2023/06/26 09:49:14;;;;;;;3.72;2.00;;;25.50;92.80;;;;;;5001313;28;20194;-68
2023/06/26 09:51:43;;;;;;;4.28;2.00;;;25.50;92.60;;;;;;5023936;28;20206;-68
2023/06/26 09:54:10;;;;;;;4.18;2.10;;;25.50;92.80;;;;;;5016107;28;20175;-69
2023/06/26 09:56:36;;;;;;;2.80;1.83;;;25.60;92.50;;;;;;5015833;28;20230;-69
2023/06/26 09:59:05;;;;;;;4.20;1.92;;;25.60;92.10;;;;;;4996212;28;20210;-68
2023/06/26 10:01:32;;;;;;;2.40;1.70;;;25.70;91.90;;;;;;4996670;28;20259;-68
2023/06/26 10:04:00;;;;;;;5.20;1.50;;;25.70;91.90;;;;;;4996596;28;20238;-68
2023/06/26 10:06:35;;;;;;;3.88;1.80;;;25.80;91.80;;;;;;5012889;28;20222;-68
2023/06/26 10:09:04;;;;;;;3.78;1.90;;;25.90;91.70;;;;;;5012502;28;20203;-69
2023/06/26 10:11:55;;;;;;;3.38;1.95;;;25.90;91.10;;;;;;4996293;28;20183;-68
2023/06/26 10:14:27;;;;;;;4.55;2.10;;;26.00;90.80;;;;;;4977463;28;20202;-68
2023/06/26 10:17:00;;;;;;;3.10;1.70;;;26.10;90.60;;;;;;5013216;28;20183;-69
2023/06/26 10:19:28;;;;;;;3.40;1.67;;;26.10;91.00;;;;;;5015807;28;20198;-68
2023/06/26 10:21:54;;;;;;;3.88;1.80;;;26.20;90.70;;;;;;5015664;28;20191;-70
2023/06/26 10:24:22;;;;;;;4.63;2.08;;;26.30;90.40;;;;;;5015702;28;20227;-68
2023/06/26 10:26:51;;;;;;;4.30;1.70;;;26.30;90.30;;;;;;5015221;28;20221;-69
2023/06/26 10:29:21;;;;;;;4.55;1.70;;;26.40;90.10;;;;;;5015590;28;20170;-69
2023/06/26 10:31:57;;;;;;;3.55;1.70;;;26.40;88.70;;;;;;5015580;28;20187;-69
2023/06/26 10:34:23;;;;;;;3.58;1.60;;;26.40;88.40;;;;;;5015386;28;20206;-69
2023/06/26 10:37:07;;;;;;;2.15;1.38;;;26.40;88.00;;;;;;5015414;28;20171;-70
2023/06/26 10:39:54;;;;;;;2.25;1.33;;;26.40;87.20;;;;;;5015341;28;20202;-69
2023/06/26 10:42:36;;;;;;;8.73;1.55;;;26.50;87.10;;;;;;5015500;28;20194;-69
2023/06/26 10:45:17;;;;;;;2.55;1.58;;;26.50;87.20;;;;;;5015442;28;20174;-69
2023/06/26 10:47:46;;;;;;;7.93;1.90;;;26.60;84.90;;;;;;5015059;28;20206;-68
2023/06/26 10:50:28;;;;;;;2.35;1.30;;;26.70;85.90;;;;;;5015080;28;20194;-69
2023/06/26 10:53:14;;;;;;;2.33;1.30;;;26.80;85.10;;;;;;5014961;28;20178;-68
2023/06/26 10:55:50;;;;;;;3.13;1.83;;;27.00;85.50;;;;;;5011943;28;20265;-68
2023/06/26 10:58:43;;;;;;;3.15;1.38;;;27.20;84.60;;;;;;5012027;28;20198;-69
2023/06/26 11:01:14;;;;;;;2.47;1.50;;;27.40;83.70;;;;;;5011214;28;20226;-69
2023/06/26 11:03:41;;;;;;;4.32;1.13;;;27.50;83.90;;;;;;5024587;28;20252;-69
2023/06/26 11:06:14;;;;;;;6.20;1.40;;;27.50;83.60;;;;;;4995354;28;20207;-70
2023/06/26 11:08:46;;;;;;;2.63;1.40;;;27.50;82.80;;;;;;4999152;28;20178;-69
2023/06/26 11:11:15;;;;;;;2.75;1.50;;;27.60;80.50;;;;;;5014992;28;20189;-69
2023/06/26 11:13:46;;;;;;;2.83;1.48;;;27.70;81.50;;;;;;5014484;28;20290;-70
2023/06/26 11:16:15;;;;;;;3.67;1.55;;;27.70;80.50;;;;;;5014765;28;20220;-70
2023/06/26 11:18:51;;;;;;;3.58;1.42;;;27.80;80.20;;;;;;5014381;28;20426;-71
2023/06/26 11:21:24;;;;;;;2.25;1.23;;;27.90;80.10;;;;;;5014942;28;20233;-69
2023/06/26 11:24:00;;;;;;;2.60;1.30;;;27.90;80.50;;;;;;5014972;28;20174;-69
2023/06/26 11:26:26;;;;;;;3.15;1.60;;;28.00;78.50;;;;;;5014809;28;20163;-71
2023/06/26 11:28:54;;;;;;;2.70;1.40;;;28.00;78.90;;;;;;5017779;28;20182;-69
2023/06/26 11:31:31;;;;;;;6.15;1.50;;;28.10;78.80;;;;;;5016274;28;20206;-69
2023/06/26 11:34:02;;;;;;;2.35;1.13;;;28.20;76.30;;;;;;5014981;28;20178;-69
2023/06/26 11:36:31;;;;;;;2.80;1.55;;;28.40;77.70;;;;;;5014735;28;20174;-69
2023/06/26 11:39:00;;;;;;;3.70;1.30;;;28.50;76.30;;;;;;5014665;28;20198;-69
2023/06/26 11:41:30;;;;;;;6.78;1.73;;;28.60;76.20;;;;;;5014388;28;20179;-68
2023/06/26 11:44:02;;;;;;;3.78;1.50;;;28.60;74.50;;;;;;5014533;28;20218;-69
2023/06/26 11:46:31;;;;;;;3.33;1.15;;;28.60;74.80;;;;;;5014457;28;20251;-69
2023/06/26 11:48:56;;;;;;;2.35;1.38;;;28.60;74.80;;;;;;5014366;28;20194;-69
2023/06/26 11:51:22;;;;;;;2.75;1.40;;;28.70;74.20;;;;;;5014365;28;20205;-69
2023/06/26 11:53:50;;;;;;;2.75;1.30;;;28.70;73.00;;;;;;5014382;28;20174;-69
2023/06/26 11:56:22;;;;;;;2.78;1.30;;;28.70;71.30;;;;;;5019435;28;20210;-69
2023/06/26 11:59:04;;;;;;;7.82;1.63;;;28.60;71.30;;;;;;5030748;28;20277;-68
2023/06/26 12:01:46;;;;;;;2.53;1.35;;;28.70;69.80;;;;;;5014339;28;20186;-69
2023/06/26 12:04:16;;;;;;;2.85;1.30;;;28.70;70.90;;;;;;5030916;28;20241;-69
2023/06/26 12:06:49;;;;;;;2.95;1.33;;;28.80;71.30;;;;;;5014168;28;20171;-69
2023/06/26 12:09:20;;;;;;;2.97;1.40;;;28.80;68.30;;;;;;5014379;28;20266;-68
2023/06/26 12:11:52;;;;;;;2.40;1.55;;;28.70;68.60;;;;;;5016470;28;20170;-69
2023/06/26 12:14:21;;;;;;;2.67;1.60;;;28.70;68.20;;;;;;5018163;28;20175;-69
2023/06/26 12:17:01;;;;;;;4.03;1.55;;;28.60;67.20;;;;;;5018001;28;20196;-69
2023/06/26 12:19:56;;;;;;;2.72;1.30;;;28.60;67.30;;;;;;5017705;28;20218;-68
2023/06/26 12:25:49;;;;;;;;;;;;;;;;;;;;;
2023/06/26 12:28:18;;;;;;;4.05;1.70;;;28.90;66.40;;;;;;5018385;28;20212;-70
2023/06/26 12:31:16;;;;;;;3.28;1.23;;;29.00;63.80;;;;;;5017850;28;20190;-70
2023/06/26 12:33:45;;;;;;;4.13;1.48;;;29.10;63.60;;;;;;5017455;28;20237;-70
2023/06/26 12:36:12;;;;;;;2.08;1.50;;;29.00;62.50;;;;;;5017564;28;20186;-70
2023/06/26 12:38:38;;;;;;;2.17;1.30;;;29.00;63.20;;;;;;5031064;28;20201;-70
2023/06/26 12:41:03;;;;;;;3.45;1.60;;;29.00;63.40;;;;;;5037246;28;20228;-70
2023/06/26 12:43:29;;;;;;;4.60;1.40;;;29.00;62.30;;;;;;5029310;28;20171;-70
2023/06/26 12:45:58;;;;;;;2.78;1.30;;;28.90;61.50;;;;;;5017478;28;20198;-70
2023/06/26 12:48:51;;;;;;;3.13;1.20;;;28.90;61.90;;;;;;5016951;28;20194;-70
2023/06/26 12:51:17;;;;;;;2.40;1.40;;;28.90;61.10;;;;;;5017032;28;20286;-70
2023/06/26 12:53:43;;;;;;;3.63;1.63;;;28.80;61.50;;;;;;5017231;28;20286;-71
2023/06/26 12:56:10;;;;;;;2.10;1.05;;;28.90;61.30;;;;;;5017454;28;20178;-69
2023/06/26 12:58:38;;;;;;;3.95;1.30;;;28.90;61.20;;;;;;5017007;28;20202;-70
2023/06/26 13:01:15;;;;;;;2.08;1.40;;;28.90;60.90;;;;;;5017100;28;20175;-69